Time;durP1;ratioP1;P1;durP2;ratioP2;P2;SDS_P1;SDS_P2;PMS_P1;PMS_P2;Temp;Humidity;BMP_temperature;BMP_pressure;BME280_temperature;BME280_humidity;BME280_pressure;Samples;Min_cycle;Max_cycle;Signal;HPM_P1;HPM_P2
2022/01/17 00:00:32;;;;;;;;;;;26.90;99.90;;;;;;5074303;28;19909;-71
2022/01/17 00:02:59;;;;;;;;;;;27.00;99.90;;;;;;5073672;28;19912;-71
2022/01/17 00:05:27;;;;;;;;;;;27.10;99.90;;;;;;5073726;28;19912;-71
2022/01/17 00:07:53;;;;;;;;;;;27.10;99.90;;;;;;5073569;28;19951;-71
2022/01/17 00:10:20;;;;;;;;;;;27.20;99.90;;;;;;5074037;28;20007;-71
2022/01/17 00:12:50;;;;;;;;;;;27.20;99.90;;;;;;5074005;28;19908;-71
2022/01/17 00:15:26;;;;;;;;;;;27.20;99.90;;;;;;5074095;28;19945;-71
2022/01/17 00:18:20;;;;;;;;;;;27.10;99.90;;;;;;5073478;28;19959;-71
2022/01/17 00:20:40;;;;;;;;;;;27.10;99.90;;;;;;5074009;28;19908;-71
2022/01/17 00:23:07;;;;;;;;;;;27.20;99.90;;;;;;5073949;28;19995;-71
2022/01/17 00:25:33;;;;;;;;;;;27.30;99.90;;;;;;5073710;28;19916;-71
2022/01/17 00:28:00;;;;;;;;;;;27.40;99.90;;;;;;5073403;28;19908;-72
2022/01/17 00:30:26;;;;;;;;;;;27.50;99.90;;;;;;5073584;28;19912;-71
2022/01/17 00:32:53;;;;;;;;;;;27.60;99.90;;;;;;5073520;28;19908;-71
2022/01/17 00:35:20;;;;;;;;;;;27.70;99.90;;;;;;5073439;28;19909;-72
2022/01/17 00:37:49;;;;;;;;;;;27.70;99.90;;;;;;5073235;28;19909;-71
2022/01/17 00:40:15;;;;;;;;;;;28.00;99.90;;;;;;5073502;28;19915;-70
2022/01/17 00:42:45;;;;;;;;;;;28.00;99.90;;;;;;5073641;28;20328;-71
2022/01/17 00:45:13;;;;;;;;;;;28.10;99.90;;;;;;5073528;28;19908;-71
2022/01/17 00:47:40;;;;;;;;;;;28.30;99.90;;;;;;5073283;28;19912;-71
2022/01/17 00:50:08;;;;;;;;;;;28.40;99.90;;;;;;5072677;28;19921;-71
2022/01/17 00:52:35;;;;;;;;;;;28.70;99.90;;;;;;5073151;28;19908;-72
2022/01/17 00:55:01;;;;;;;;;;;29.00;99.90;;;;;;5073153;28;19912;-71
2022/01/17 00:57:28;;;;;;;;;;;29.30;99.90;;;;;;5073120;28;19909;-71
2022/01/17 00:59:55;;;;;;;;;;;29.50;99.90;;;;;;5071771;28;20011;-71
2022/01/17 01:02:21;;;;;;;;;;;29.70;99.90;;;;;;5072807;28;19912;-71
2022/01/17 01:04:49;;;;;;;;;;;30.10;99.90;;;;;;5073075;28;19908;-71
2022/01/17 01:07:16;;;;;;;;;;;30.20;99.90;;;;;;5072991;28;19912;-70
2022/01/17 01:09:55;;;;;;;;;;;30.50;99.90;;;;;;5072607;28;20018;-70
2022/01/17 01:12:22;;;;;;;;;;;30.60;99.90;;;;;;5072681;28;19908;-69
2022/01/17 01:14:48;;;;;;;;;;;30.50;99.90;;;;;;5072758;28;20370;-69
2022/01/17 01:17:31;;;;;;;;;;;30.60;99.90;;;;;;5072454;28;19908;-71
2022/01/17 01:20:04;;;;;;;;;;;30.90;99.90;;;;;;5072546;28;19909;-70
2022/01/17 01:28:05;;;;;;;;;;;31.10;99.90;;;;;;5050688;28;19919;-71
2022/01/17 01:30:33;;;;;;;;;;;30.80;99.90;;;;;;5072431;28;19920;-72
2022/01/17 01:33:00;;;;;;;;;;;30.70;99.90;;;;;;5072178;28;19999;-72
2022/01/17 01:35:30;;;;;;;;;;;30.80;99.90;;;;;;5072615;28;19915;-71
2022/01/17 01:37:59;;;;;;;;;;;30.80;99.90;;;;;;5072379;28;19909;-68
2022/01/17 01:40:26;;;;;;;;;;;30.70;99.90;;;;;;5072603;28;19916;-68
2022/01/17 01:42:53;;;;;;;;;;;30.80;99.90;;;;;;5072488;28;19944;-69
2022/01/17 01:45:22;;;;;;;;;;;30.70;99.90;;;;;;5072441;28;20367;-70
2022/01/17 01:47:49;;;;;;;;;;;30.40;99.90;;;;;;5071982;28;19927;-71
2022/01/17 01:50:16;;;;;;;;;;;30.30;99.90;;;;;;5072169;28;19946;-70
2022/01/17 01:52:43;;;;;;;;;;;30.30;99.90;;;;;;5072302;28;19908;-68
2022/01/17 01:55:11;;;;;;;;;;;30.40;99.90;;;;;;5072460;28;19909;-70
2022/01/17 01:57:40;;;;;;;;;;;30.40;99.90;;;;;;5072327;28;20333;-70
2022/01/17 02:00:07;;;;;;;;;;;30.30;99.90;;;;;;5072026;28;19908;-69
2022/01/17 02:02:34;;;;;;;;;;;30.20;99.90;;;;;;5072731;28;19909;-69
2022/01/17 02:05:01;;;;;;;;;;;29.90;99.90;;;;;;5076455;28;20512;-69
2022/01/17 02:07:28;;;;;;;;;;;29.80;99.90;;;;;;5076500;28;19916;-70
2022/01/17 02:09:55;;;;;;;;;;;29.70;99.90;;;;;;5076072;28;19921;-70
2022/01/17 02:12:22;;;;;;;;;;;29.50;99.90;;;;;;5076289;28;20003;-70
2022/01/17 02:14:50;;;;;;;;;;;29.30;99.90;;;;;;5076194;28;19916;-70
2022/01/17 02:17:19;;;;;;;;;;;29.20;99.90;;;;;;5076036;28;19962;-69
2022/01/17 02:19:50;;;;;;;;;;;29.00;99.90;;;;;;5076070;28;19915;-69
2022/01/17 02:22:16;;;;;;;;;;;28.70;99.90;;;;;;5075902;28;19908;-69
2022/01/17 02:24:44;;;;;;;;;;;28.60;99.90;;;;;;5076027;28;19927;-69
2022/01/17 02:27:10;;;;;;;;;;;28.50;99.90;;;;;;5076251;28;19955;-70
2022/01/17 02:29:37;;;;;;;;;;;28.60;99.90;;;;;;5075998;28;19916;-70
2022/01/17 02:32:04;;;;;;;;;;;28.60;99.90;;;;;;5075738;28;19909;-70
2022/01/17 02:34:30;;;;;;;;;;;28.50;99.90;;;;;;5075987;28;19908;-69
2022/01/17 02:36:57;;;;;;;;;;;28.50;99.90;;;;;;5075656;28;20252;-69
2022/01/17 02:39:24;;;;;;;;;;;28.60;99.90;;;;;;5075693;28;19908;-70
2022/01/17 02:41:50;;;;;;;;;;;28.60;99.90;;;;;;5075693;28;19908;-70
2022/01/17 02:44:17;;;;;;;;;;;28.50;99.90;;;;;;5075614;28;19935;-71
2022/01/17 02:46:44;;;;;;;;;;;28.30;99.90;;;;;;5075473;28;19913;-70
2022/01/17 02:49:11;;;;;;;;;;;28.40;99.90;;;;;;5075455;28;20349;-70
2022/01/17 02:51:37;;;;;;;;;;;28.30;99.90;;;;;;5075773;28;19954;-70
2022/01/17 02:54:04;;;;;;;;;;;28.20;99.90;;;;;;5075122;28;19963;-71
2022/01/17 02:56:31;;;;;;;;;;;28.20;99.90;;;;;;5075141;28;20275;-70
2022/01/17 02:58:57;;;;;;;;;;;28.10;99.90;;;;;;5075364;28;19908;-70
2022/01/17 03:01:25;;;;;;;;;;;28.00;99.90;;;;;;5075367;28;20359;-70
2022/01/17 03:03:52;;;;;;;;;;;27.70;99.90;;;;;;5074932;28;19916;-70
2022/01/17 03:06:19;;;;;;;;;;;27.90;99.90;;;;;;5075322;28;19909;-70
2022/01/17 03:08:46;;;;;;;;;;;28.00;99.90;;;;;;5075120;28;19974;-70
2022/01/17 03:11:15;;;;;;;;;;;28.00;99.90;;;;;;5075063;28;19960;-69
2022/01/17 03:13:42;;;;;;;;;;;28.00;99.90;;;;;;5074905;28;19947;-69
2022/01/17 03:16:11;;;;;;;;;;;28.00;99.90;;;;;;5074919;28;20295;-70
2022/01/17 03:18:42;;;;;;;;;;;27.80;99.90;;;;;;5074827;28;19909;-69
2022/01/17 03:21:10;;;;;;;;;;;27.80;99.90;;;;;;5074909;28;20003;-70
2022/01/17 03:23:38;;;;;;;;;;;28.00;99.90;;;;;;5074893;28;19909;-69
2022/01/17 03:26:05;;;;;;;;;;;28.00;99.90;;;;;;5074619;28;20855;-70
2022/01/17 03:28:31;;;;;;;;;;;28.00;99.90;;;;;;5074922;28;19917;-70
2022/01/17 03:30:59;;;;;;;;;;;28.10;99.90;;;;;;5074641;28;19913;-71
2022/01/17 03:33:26;;;;;;;;;;;28.10;99.90;;;;;;5074262;28;19908;-69
2022/01/17 03:35:53;;;;;;;;;;;28.10;99.90;;;;;;5074317;28;20359;-69
2022/01/17 03:38:21;;;;;;;;;;;28.10;99.90;;;;;;5074679;28;19947;-69
2022/01/17 03:40:50;;;;;;;;;;;28.10;99.90;;;;;;5074734;28;19908;-69
2022/01/17 03:43:21;;;;;;;;;;;28.10;99.90;;;;;;5074863;28;19934;-69
2022/01/17 03:45:49;;;;;;;;;;;28.10;99.90;;;;;;5074408;28;19916;-68
2022/01/17 03:48:16;;;;;;;;;;;28.00;99.90;;;;;;5074408;28;19931;-69
2022/01/17 03:50:43;;;;;;;;;;;28.20;99.90;;;;;;5074402;28;19912;-68
2022/01/17 03:53:09;;;;;;;;;;;28.20;99.90;;;;;;5074394;28;19953;-69
2022/01/17 03:55:36;;;;;;;;;;;28.10;99.90;;;;;;5074031;28;20366;-68
2022/01/17 03:58:07;;;;;;;;;;;28.10;99.90;;;;;;5074068;28;19909;-71
2022/01/17 04:00:39;;;;;;;;;;;28.10;99.90;;;;;;5074048;28;19952;-68
2022/01/17 04:03:06;;;;;;;;;;;28.20;99.90;;;;;;5074011;28;19908;-71
2022/01/17 04:05:33;;;;;;;;;;;28.20;99.90;;;;;;5073840;28;19909;-69
2022/01/17 04:07:59;;;;;;;;;;;28.20;99.90;;;;;;5073865;28;19951;-69
2022/01/17 04:10:26;;;;;;;;;;;28.20;99.90;;;;;;5073605;28;19927;-68
2022/01/17 04:12:55;;;;;;;;;;;28.00;99.90;;;;;;5073970;28;19909;-69
2022/01/17 04:15:22;;;;;;;;;;;27.90;99.90;;;;;;5073699;28;19912;-68
2022/01/17 04:17:49;;;;;;;;;;;27.80;99.90;;;;;;5073444;28;19934;-69
2022/01/17 04:20:25;;;;;;;;;;;27.90;99.90;;;;;;5073754;28;19915;-69
2022/01/17 04:22:54;;;;;;;;;;;27.90;99.90;;;;;;5073951;28;20377;-69
2022/01/17 04:25:21;;;;;;;;;;;27.90;99.90;;;;;;5073123;28;19915;-70
2022/01/17 04:27:48;;;;;;;;;;;27.90;99.90;;;;;;5073182;28;19931;-69
2022/01/17 04:30:16;;;;;;;;;;;28.00;99.90;;;;;;5073289;28;19921;-69
2022/01/17 04:32:43;;;;;;;;;;;28.00;99.90;;;;;;5073479;28;19931;-70
2022/01/17 04:35:11;;;;;;;;;;;27.80;99.90;;;;;;5073451;28;19909;-69
2022/01/17 04:37:38;;;;;;;;;;;27.70;99.90;;;;;;5073417;28;19954;-69
2022/01/17 04:40:05;;;;;;;;;;;27.80;99.90;;;;;;5073175;28;19963;-70
2022/01/17 04:42:32;;;;;;;;;;;27.80;99.90;;;;;;5073183;28;19978;-70
2022/01/17 04:45:07;;;;;;;;;;;27.80;99.90;;;;;;5073205;28;19916;-69
2022/01/17 04:47:38;;;;;;;;;;;27.80;99.90;;;;;;5072852;28;19990;-69
2022/01/17 04:50:05;;;;;;;;;;;27.90;99.90;;;;;;5072841;28;20006;-70
2022/01/17 04:52:32;;;;;;;;;;;27.90;99.90;;;;;;5073163;28;19920;-70
2022/01/17 04:55:02;;;;;;;;;;;27.90;99.90;;;;;;5073223;28;19935;-69
2022/01/17 04:57:29;;;;;;;;;;;27.80;99.90;;;;;;5073080;28;19912;-70
2022/01/17 04:59:56;;;;;;;;;;;27.70;99.90;;;;;;5073093;28;20328;-70
2022/01/17 05:02:23;;;;;;;;;;;27.70;99.90;;;;;;5072828;28;19940;-69
2022/01/17 05:04:51;;;;;;;;;;;27.70;99.90;;;;;;5072741;28;19960;-69
2022/01/17 05:07:18;;;;;;;;;;;27.80;99.90;;;;;;5072719;28;19915;-70
2022/01/17 05:09:45;;;;;;;;;;;27.60;99.90;;;;;;5072460;28;19932;-69
2022/01/17 05:12:13;;;;;;;;;;;27.70;99.90;;;;;;5072678;28;19920;-69
2022/01/17 05:14:42;;;;;;;;;;;27.70;99.90;;;;;;5072601;28;19915;-69
2022/01/17 05:20:00;;;;;;;;;;;27.70;99.90;;;;;;5072542;28;19913;-70
2022/01/17 05:22:30;;;;;;;;;;;27.80;99.90;;;;;;5072503;28;20049;-70
2022/01/17 05:24:57;;;;;;;;;;;27.70;99.90;;;;;;5072530;28;19915;-70
2022/01/17 05:27:24;;;;;;;;;;;27.70;99.90;;;;;;5072528;28;19909;-70
2022/01/17 05:29:51;;;;;;;;;;;27.60;99.90;;;;;;5072273;28;20390;-70
2022/01/17 05:32:17;;;;;;;;;;;27.60;99.90;;;;;;5072335;28;19928;-71
2022/01/17 05:34:44;;;;;;;;;;;27.60;99.90;;;;;;5072349;28;19916;-69
2022/01/17 05:37:13;;;;;;;;;;;27.60;99.90;;;;;;5072542;28;19909;-69
2022/01/17 05:39:40;;;;;;;;;;;27.40;99.90;;;;;;5072218;28;19909;-68
2022/01/17 05:42:08;;;;;;;;;;;27.40;99.90;;;;;;5072124;28;19966;-70
2022/01/17 05:44:34;;;;;;;;;;;27.40;99.90;;;;;;5072552;28;19981;-69
2022/01/17 05:47:01;;;;;;;;;;;27.30;99.90;;;;;;5072123;28;19908;-69
2022/01/17 05:49:28;;;;;;;;;;;27.20;99.90;;;;;;5072160;28;19956;-69
2022/01/17 05:51:54;;;;;;;;;;;27.10;99.90;;;;;;5070144;28;19916;-69
2022/01/17 05:54:21;;;;;;;;;;;27.10;99.90;;;;;;5070380;28;20003;-70
2022/01/17 05:56:48;;;;;;;;;;;27.10;99.90;;;;;;5070160;28;19913;-69
2022/01/17 05:59:14;;;;;;;;;;;27.00;99.90;;;;;;5070222;28;19916;-70
2022/01/17 06:01:42;;;;;;;;;;;26.90;99.90;;;;;;5070109;28;19965;-70
2022/01/17 06:04:09;;;;;;;;;;;26.90;99.90;;;;;;5069766;28;19935;-70
2022/01/17 06:06:36;;;;;;;;;;;26.90;99.90;;;;;;5069930;28;19957;-70
2022/01/17 06:09:03;;;;;;;;;;;26.70;99.90;;;;;;5070025;28;19972;-70
2022/01/17 06:11:30;;;;;;;;;;;26.60;99.90;;;;;;5070083;28;20069;-70
2022/01/17 06:13:59;;;;;;;;;;;26.50;99.90;;;;;;5069834;28;19912;-70
2022/01/17 06:16:26;;;;;;;;;;;26.40;99.90;;;;;;5069857;28;20542;-70
2022/01/17 06:18:53;;;;;;;;;;;26.40;99.90;;;;;;5069520;28;19908;-70
2022/01/17 06:21:19;;;;;;;;;;;26.40;99.90;;;;;;5070097;28;19916;-70
2022/01/17 06:23:46;;;;;;;;;;;26.40;99.90;;;;;;5069764;28;20042;-69
2022/01/17 06:26:13;;;;;;;;;;;26.40;99.90;;;;;;5070098;28;19912;-69
2022/01/17 06:28:39;;;;;;;;;;;26.40;99.90;;;;;;5069775;28;19924;-69
2022/01/17 06:31:06;;;;;;;;;;;26.30;99.90;;;;;;5069404;28;19931;-69
2022/01/17 06:33:32;;;;;;;;;;;26.30;99.90;;;;;;5069905;28;19981;-69
2022/01/17 06:35:59;;;;;;;;;;;26.30;99.90;;;;;;5069669;28;19913;-69
2022/01/17 06:38:26;;;;;;;;;;;26.20;99.90;;;;;;5069909;28;19908;-69
2022/01/17 06:40:52;;;;;;;;;;;26.20;99.90;;;;;;5069781;28;19909;-69
2022/01/17 06:43:19;;;;;;;;;;;26.20;99.90;;;;;;5069151;28;19955;-72
2022/01/17 06:45:46;;;;;;;;;;;26.10;99.90;;;;;;5069407;28;19919;-70
2022/01/17 06:48:12;;;;;;;;;;;26.20;99.90;;;;;;5069670;28;19947;-71
2022/01/17 06:50:39;;;;;;;;;;;26.20;99.90;;;;;;5073489;28;19908;-70
2022/01/17 06:53:06;;;;;;;;;;;26.20;99.90;;;;;;5073424;28;19915;-69
2022/01/17 06:55:32;;;;;;;;;;;26.20;99.90;;;;;;5073409;28;19917;-69
2022/01/17 06:57:59;;;;;;;;;;;26.20;99.90;;;;;;5072450;28;19908;-70
2022/01/17 07:00:26;;;;;;;;;;;26.20;99.90;;;;;;5073053;28;20345;-69
2022/01/17 07:02:52;;;;;;;;;;;26.20;99.90;;;;;;5073269;28;19966;-69
2022/01/17 07:05:19;;;;;;;;;;;26.30;99.90;;;;;;5073524;28;20322;-69
2022/01/17 07:07:46;;;;;;;;;;;26.20;99.90;;;;;;5072777;28;19986;-70
2022/01/17 07:10:12;;;;;;;;;;;26.20;99.90;;;;;;5072512;28;19921;-70
2022/01/17 07:12:39;;;;;;;;;;;26.20;99.90;;;;;;5073230;28;20654;-71
2022/01/17 07:15:06;;;;;;;;;;;26.20;99.90;;;;;;5073091;28;19916;-70
2022/01/17 07:17:33;;;;;;;;;;;26.20;99.90;;;;;;5074577;28;19912;-71
2022/01/17 07:20:01;;;;;;;;;;;26.30;99.90;;;;;;5072820;28;19915;-70
2022/01/17 07:22:27;;;;;;;;;;;26.30;99.90;;;;;;5072825;28;19913;-71
2022/01/17 07:24:56;;;;;;;;;;;26.20;99.90;;;;;;5072598;28;19943;-71
2022/01/17 07:27:24;;;;;;;;;;;26.20;99.90;;;;;;5073217;28;20316;-70
2022/01/17 07:29:51;;;;;;;;;;;26.10;99.90;;;;;;5072524;28;19960;-70
2022/01/17 07:32:17;;;;;;;;;;;26.10;99.90;;;;;;5072772;28;19921;-70
2022/01/17 07:34:44;;;;;;;;;;;26.10;99.90;;;;;;5072913;28;20331;-70
2022/01/17 07:37:11;;;;;;;;;;;26.10;99.90;;;;;;5072360;28;19919;-70
2022/01/17 07:39:43;;;;;;;;;;;26.20;99.90;;;;;;5072639;28;20283;-71
2022/01/17 07:42:10;;;;;;;;;;;26.10;99.90;;;;;;5072449;28;20058;-71
2022/01/17 07:44:39;;;;;;;;;;;25.90;99.90;;;;;;5072315;28;19952;-69
2022/01/17 07:47:15;;;;;;;;;;;25.90;99.90;;;;;;5072328;28;20003;-70
2022/01/17 07:49:42;;;;;;;;;;;25.90;99.90;;;;;;5072104;28;19939;-71
2022/01/17 07:52:09;;;;;;;;;;;26.00;99.90;;;;;;5072320;28;20128;-70
2022/01/17 07:54:43;;;;;;;;;;;25.90;99.90;;;;;;5072378;28;19913;-69
2022/01/17 07:57:11;;;;;;;;;;;25.90;99.90;;;;;;5072474;28;19908;-70
2022/01/17 07:59:38;;;;;;;;;;;25.90;99.90;;;;;;5071893;28;19913;-71
2022/01/17 08:02:06;;;;;;;;;;;25.90;99.90;;;;;;5070862;28;19919;-71
2022/01/17 08:04:33;;;;;;;;;;;25.90;99.90;;;;;;5072030;28;19912;-69
2022/01/17 08:06:59;;;;;;;;;;;25.80;99.90;;;;;;5074368;28;19909;-70
2022/01/17 08:09:31;;;;;;;;;;;25.70;99.90;;;;;;5074012;28;19923;-70
2022/01/17 08:11:58;;;;;;;;;;;25.70;99.90;;;;;;5074085;28;20008;-71
2022/01/17 08:14:25;;;;;;;;;;;25.70;99.90;;;;;;5073988;28;19909;-69
2022/01/17 08:16:52;;;;;;;;;;;25.80;99.90;;;;;;5073867;28;19960;-72
2022/01/17 08:19:19;;;;;;;;;;;25.80;99.90;;;;;;5074079;28;20363;-71
2022/01/17 08:21:47;;;;;;;;;;;25.80;99.90;;;;;;5073570;28;19908;-71
2022/01/17 08:24:14;;;;;;;;;;;25.80;99.90;;;;;;5073805;28;19924;-71
2022/01/17 08:26:43;;;;;;;;;;;25.70;99.90;;;;;;5073816;28;20245;-70
2022/01/17 08:29:10;;;;;;;;;;;25.70;99.90;;;;;;5073582;28;19919;-71
2022/01/17 08:31:37;;;;;;;;;;;25.70;99.90;;;;;;5073718;28;20351;-71
2022/01/17 08:34:04;;;;;;;;;;;25.70;99.90;;;;;;5073645;28;19939;-72
2022/01/17 08:36:31;;;;;;;;;;;25.70;99.90;;;;;;5073575;28;19913;-71
2022/01/17 08:38:57;;;;;;;;;;;25.70;99.90;;;;;;5073561;28;19908;-71
2022/01/17 08:41:24;;;;;;;;;;;25.70;99.90;;;;;;5073540;28;19909;-72
2022/01/17 08:43:51;;;;;;;;;;;25.70;99.90;;;;;;5073279;28;20314;-71
2022/01/17 08:46:18;;;;;;;;;;;25.70;99.90;;;;;;5073199;28;19916;-72
2022/01/17 08:48:45;;;;;;;;;;;25.70;99.90;;;;;;5073291;28;20402;-72
2022/01/17 08:51:12;;;;;;;;;;;25.70;99.90;;;;;;5073424;28;19935;-71
2022/01/17 08:53:39;;;;;;;;;;;25.70;99.90;;;;;;5073353;28;19950;-72
2022/01/17 08:56:06;;;;;;;;;;;25.70;99.90;;;;;;5072850;28;20227;-71
2022/01/17 08:58:32;;;;;;;;;;;25.70;99.90;;;;;;5073146;28;19912;-72
2022/01/17 09:00:59;;;;;;;;;;;25.70;99.90;;;;;;5072906;28;19978;-73
2022/01/17 09:03:26;;;;;;;;;;;25.70;99.90;;;;;;5073011;28;19932;-71
2022/01/17 09:05:53;;;;;;;;;;;25.70;99.90;;;;;;5072773;28;20295;-71
2022/01/17 09:08:20;;;;;;;;;;;25.60;99.90;;;;;;5072708;28;19978;-72
2022/01/17 09:10:48;;;;;;;;;;;25.60;99.90;;;;;;5072685;28;20007;-72
2022/01/17 09:13:15;;;;;;;;;;;25.70;99.90;;;;;;5072609;28;19908;-72
2022/01/17 09:15:41;;;;;;;;;;;25.70;99.90;;;;;;5072809;28;19909;-71
2022/01/17 09:18:08;;;;;;;;;;;25.60;99.90;;;;;;5072608;28;19952;-71
2022/01/17 09:20:35;;;;;;;;;;;25.60;99.90;;;;;;5072682;28;19915;-70
2022/01/17 09:23:02;;;;;;;;;;;25.60;99.90;;;;;;5072809;28;19912;-71
2022/01/17 09:25:29;;;;;;;;;;;25.60;99.90;;;;;;5072805;28;20023;-69
2022/01/17 09:27:56;;;;;;;;;;;25.60;99.90;;;;;;5072444;28;19940;-71
2022/01/17 09:30:22;;;;;;;;;;;25.60;99.90;;;;;;5072642;28;19920;-71
2022/01/17 09:32:49;;;;;;;;;;;25.60;99.90;;;;;;5072831;28;19908;-71
2022/01/17 09:35:16;;;;;;;;;;;25.60;99.90;;;;;;5072709;28;19909;-70
2022/01/17 09:37:42;;;;;;;;;;;25.60;99.90;;;;;;5072619;28;20014;-72
2022/01/17 09:40:10;;;;;;;;;;;25.60;99.90;;;;;;5072274;28;20089;-71
2022/01/17 09:42:37;;;;;;;;;;;25.60;99.90;;;;;;5072673;28;19928;-72
2022/01/17 09:45:06;;;;;;;;;;;25.60;99.90;;;;;;5072599;28;19915;-70
2022/01/17 09:47:34;;;;;;;;;;;25.60;99.90;;;;;;5072536;28;19916;-70
2022/01/17 09:50:08;;;;;;;;;;;25.60;99.90;;;;;;5072118;28;20259;-70
2022/01/17 09:52:35;;;;;;;;;;;25.70;99.90;;;;;;5072473;28;19968;-71
2022/01/17 09:55:10;;;;;;;;;;;25.60;99.90;;;;;;5072364;28;20328;-69
2022/01/17 09:57:39;;;;;;;;;;;25.60;99.90;;;;;;5072526;28;19942;-69
2022/01/17 10:00:08;;;;;;;;;;;25.70;99.90;;;;;;5072062;28;19947;-71
2022/01/17 10:02:35;;;;;;;;;;;25.70;99.90;;;;;;5072391;28;19908;-72
2022/01/17 10:05:05;;;;;;;;;;;25.70;99.90;;;;;;5072387;28;19912;-71
2022/01/17 10:07:50;;;;;;;;;;;25.70;99.90;;;;;;5072316;28;19917;-71
2022/01/17 10:10:16;;;;;;;;;;;25.70;99.90;;;;;;5072063;28;20057;-72
2022/01/17 10:12:43;;;;;;;;;;;25.70;99.90;;;;;;5072281;28;19935;-71
2022/01/17 10:15:22;;;;;;;;;;;25.70;99.90;;;;;;5072090;28;19915;-71
2022/01/17 10:17:56;;;;;;;;;;;25.80;99.90;;;;;;5071822;28;19943;-71
2022/01/17 10:20:22;;;;;;;;;;;25.70;99.90;;;;;;5072309;28;19913;-72
2022/01/17 10:23:15;;;;;;;;;;;25.70;99.90;;;;;;5072092;28;19954;-72
2022/01/17 10:25:57;;;;;;;;;;;25.70;99.90;;;;;;5076198;28;20417;-72
2022/01/17 10:29:07;;;;;;;;;;;25.70;99.90;;;;;;5076131;28;19909;-71
2022/01/17 10:36:46;;;;;;;;;;;25.70;99.90;;;;;;5076026;28;19916;-73
2022/01/17 10:39:13;;;;;;;;;;;25.70;99.90;;;;;;5075879;28;20370;-73
2022/01/17 10:41:40;;;;;;;;;;;25.70;99.90;;;;;;5075838;28;19915;-71
2022/01/17 10:44:07;;;;;;;;;;;25.70;99.90;;;;;;5075569;28;19954;-72
2022/01/17 10:46:34;;;;;;;;;;;25.70;99.90;;;;;;5075767;28;19913;-72
2022/01/17 10:49:00;;;;;;;;;;;25.70;99.90;;;;;;5091268;28;19938;-72
2022/01/17 10:51:29;;;;;;;;;;;25.70;99.90;;;;;;5096013;28;19908;-71
2022/01/17 10:53:56;;;;;;;;;;;25.70;99.90;;;;;;5095695;28;19943;-71
2022/01/17 10:56:26;;;;;;;;;;;25.70;99.90;;;;;;5095749;28;19919;-72
2022/01/17 10:59:03;;;;;;;;;;;25.70;99.90;;;;;;5095761;28;20042;-72
2022/01/17 11:01:37;;;;;;;;;;;25.70;99.90;;;;;;5095292;28;19923;-70
2022/01/17 11:04:08;;;;;;;;;;;25.60;99.90;;;;;;5095567;28;20028;-71
2022/01/17 11:06:46;;;;;;;;;;;25.60;99.90;;;;;;5095788;28;19908;-72
2022/01/17 11:09:13;;;;;;;;;;;25.60;99.90;;;;;;5095733;28;19916;-72
2022/01/17 11:11:40;;;;;;;;;;;25.60;99.90;;;;;;5095344;28;19926;-72
2022/01/17 11:14:09;;;;;;;;;;;25.60;99.90;;;;;;5095081;28;19946;-71
2022/01/17 11:16:37;;;;;;;;;;;25.70;99.90;;;;;;5095127;28;19908;-69
2022/01/17 11:20:02;;;;;;;;;;;25.60;99.90;;;;;;5095437;28;19916;-70
2022/01/17 11:21:50;;;;;;;;;;;25.70;99.90;;;;;;5095260;28;19912;-69
2022/01/17 11:24:17;;;;;;;;;;;25.60;99.90;;;;;;5095355;28;19916;-70
2022/01/17 11:26:43;;;;;;;;;;;25.60;99.90;;;;;;5095267;28;19947;-70
2022/01/17 11:29:12;;;;;;;;;;;25.60;99.90;;;;;;5095053;28;19916;-70
2022/01/17 11:31:38;;;;;;;;;;;25.60;99.90;;;;;;5094801;28;19933;-71
2022/01/17 11:34:09;;;;;;;;;;;25.70;99.90;;;;;;5095091;28;19908;-70
2022/01/17 11:36:38;;;;;;;;;;;25.60;99.90;;;;;;5095250;28;19915;-70
2022/01/17 11:39:04;;;;;;;;;;;25.60;99.90;;;;;;5094911;28;19915;-71
2022/01/17 11:41:36;;;;;;;;;;;25.60;99.90;;;;;;5095112;28;20537;-71
2022/01/17 11:44:08;;;;;;;;;;;25.60;99.90;;;;;;5094509;28;20282;-71
2022/01/17 11:46:55;;;;;;;;;;;25.50;99.90;;;;;;5094455;28;19915;-70
2022/01/17 11:49:26;;;;;;;;;;;25.50;99.90;;;;;;5094564;28;20494;-71
2022/01/17 11:51:53;;;;;;;;;;;25.50;99.90;;;;;;5094606;28;19908;-71
2022/01/17 11:54:21;;;;;;;;;;;25.50;99.90;;;;;;5094764;28;19909;-71
2022/01/17 11:56:55;;;;;;;;;;;25.50;99.90;;;;;;5094696;28;19912;-70
2022/01/17 11:59:26;;;;;;;;;;;25.50;99.90;;;;;;5094454;28;19911;-71
2022/01/17 12:02:11;;;;;;;;;;;25.50;99.90;;;;;;5093807;28;20312;-71
2022/01/17 12:04:37;;;;;;;;;;;25.50;99.90;;;;;;5094702;28;20015;-71
2022/01/17 12:07:05;;;;;;;;;;;25.50;99.90;;;;;;5094704;28;19909;-71
2022/01/17 12:09:34;;;;;;;;;;;25.50;99.90;;;;;;5094169;28;19919;-71
2022/01/17 12:12:04;;;;;;;;;;;25.50;99.90;;;;;;5094340;28;19912;-71
2022/01/17 12:14:35;;;;;;;;;;;25.50;99.90;;;;;;5094243;28;19969;-71
2022/01/17 12:17:20;;;;;;;;;;;25.60;99.90;;;;;;5093725;28;20372;-71
2022/01/17 12:22:31;;;;;;;;;;;25.60;99.90;;;;;;5094195;28;19919;-70
2022/01/17 12:25:00;;;;;;;;;;;25.60;99.90;;;;;;5093784;28;19908;-71
2022/01/17 12:27:28;;;;;;;;;;;25.60;99.90;;;;;;5094098;28;19987;-70
2022/01/17 12:30:10;;;;;;;;;;;25.60;99.90;;;;;;5093700;28;19916;-69
2022/01/17 12:32:40;;;;;;;;;;;25.60;99.90;;;;;;5094025;28;20004;-70
2022/01/17 12:35:08;;;;;;;;;;;25.60;99.90;;;;;;5094005;28;19998;-70
2022/01/17 12:37:45;;;;;;;;;;;25.70;99.90;;;;;;5094016;28;19923;-69
2022/01/17 12:40:12;;;;;;;;;;;25.70;99.90;;;;;;5093794;28;19912;-69
2022/01/17 12:42:52;;;;;;;;;;;25.70;99.90;;;;;;5094025;28;19912;-70
2022/01/17 12:45:23;;;;;;;;;;;25.60;99.90;;;;;;5093845;28;19970;-69
2022/01/17 12:47:50;;;;;;;;;;;25.60;99.90;;;;;;5093020;28;20332;-70
2022/01/17 12:50:18;;;;;;;;;;;25.50;99.90;;;;;;5093581;28;19916;-70
2022/01/17 12:52:44;;;;;;;;;;;25.50;99.90;;;;;;5093689;28;19912;-70
2022/01/17 12:55:11;;;;;;;;;;;25.50;99.90;;;;;;5093654;28;20236;-69
2022/01/17 12:57:45;;;;;;;;;;;25.50;99.90;;;;;;5093637;28;19908;-69
2022/01/17 13:00:22;;;;;;;;;;;25.40;99.90;;;;;;5093210;28;20355;-68
2022/01/17 13:02:50;;;;;;;;;;;25.40;99.90;;;;;;5093518;28;19914;-69
2022/01/17 13:05:21;;;;;;;;;;;25.40;99.90;;;;;;5093320;28;19912;-69
2022/01/17 13:07:48;;;;;;;;;;;25.50;99.90;;;;;;5093255;28;19977;-69
2022/01/17 13:10:15;;;;;;;;;;;25.50;99.90;;;;;;5092747;28;19927;-69
2022/01/17 13:12:42;;;;;;;;;;;25.50;99.90;;;;;;5092356;28;20324;-70
2022/01/17 13:15:12;;;;;;;;;;;25.50;99.90;;;;;;5092304;28;19915;-69
2022/01/17 13:17:39;;;;;;;;;;;25.50;99.90;;;;;;5092352;28;20351;-69
2022/01/17 13:20:06;;;;;;;;;;;25.50;99.90;;;;;;5092281;28;19912;-70
2022/01/17 13:22:52;;;;;;;;;;;25.50;99.90;;;;;;5092477;28;20274;-70
2022/01/17 13:25:19;;;;;;;;;;;25.50;99.90;;;;;;5092321;28;19912;-70
2022/01/17 13:27:46;;;;;;;;;;;25.50;99.90;;;;;;5092222;28;20392;-69
2022/01/17 13:30:13;;;;;;;;;;;25.50;99.90;;;;;;5092022;28;19969;-70
2022/01/17 13:32:42;;;;;;;;;;;25.50;99.90;;;;;;5092320;28;19915;-70
2022/01/17 13:35:13;;;;;;;;;;;25.50;99.90;;;;;;5092165;28;19908;-70
2022/01/17 13:37:40;;;;;;;;;;;25.50;99.90;;;;;;5092179;28;19908;-70
2022/01/17 13:40:23;;;;;;;;;;;25.50;99.90;;;;;;5092163;28;19965;-69
2022/01/17 13:42:57;;;;;;;;;;;25.50;99.90;;;;;;5092049;28;19908;-70
2022/01/17 13:45:33;;;;;;;;;;;25.50;99.90;;;;;;5091953;28;20387;-69
2022/01/17 13:48:00;;;;;;;;;;;25.50;99.90;;;;;;5091953;28;20034;-70
2022/01/17 13:50:26;;;;;;;;;;;25.50;99.90;;;;;;5091916;28;19927;-70
2022/01/17 13:52:53;;;;;;;;;;;25.50;99.90;;;;;;5091933;28;20290;-70
2022/01/17 13:55:40;;;;;;;;;;;25.50;99.90;;;;;;5091910;28;19915;-70
2022/01/17 13:58:09;;;;;;;;;;;25.50;99.90;;;;;;5090514;28;19908;-70
2022/01/17 14:00:37;;;;;;;;;;;25.40;99.90;;;;;;5091607;28;20003;-70
2022/01/17 14:03:05;;;;;;;;;;;25.50;99.90;;;;;;5092023;28;19908;-70
2022/01/17 14:05:52;;;;;;;;;;;25.50;99.90;;;;;;5091883;28;19912;-69
2022/01/17 14:08:26;;;;;;;;;;;25.50;99.90;;;;;;5090244;28;19936;-70
2022/01/17 14:11:09;;;;;;;;;;;25.50;99.90;;;;;;4968069;28;3509304;-70
2022/01/17 14:13:37;;;;;;;;;;;25.50;99.90;;;;;;5091495;28;19976;-70
2022/01/17 14:16:12;;;;;;;;;;;25.50;99.90;;;;;;5092746;28;19931;-70
2022/01/17 14:18:47;;;;;;;;;;;25.50;99.90;;;;;;5092537;28;20340;-70
2022/01/17 14:21:40;;;;;;;;;;;25.40;99.90;;;;;;5092650;28;19916;-70
2022/01/17 14:24:07;;;;;;;;;;;25.40;99.90;;;;;;5091489;28;20427;-70
2022/01/17 14:26:34;;;;;;;;;;;25.40;99.90;;;;;;5092647;28;20005;-70
2022/01/17 14:29:00;;;;;;;;;;;25.40;99.90;;;;;;5092561;28;20420;-70
2022/01/17 14:31:34;;;;;;;;;;;25.40;99.90;;;;;;5092677;28;20294;-69
2022/01/17 14:34:11;;;;;;;;;;;25.40;99.90;;;;;;5092491;28;20279;-69
2022/01/17 14:36:38;;;;;;;;;;;25.40;99.90;;;;;;5093132;28;19908;-70
2022/01/17 14:39:05;;;;;;;;;;;25.40;99.90;;;;;;5093828;28;19915;-70
2022/01/17 14:41:41;;;;;;;;;;;25.40;99.90;;;;;;5092668;28;19988;-70